sensor_id;sensor_type;location;lat;lon;timestamp;temperature;humidity
10386;DHT22;34307;51.332;12.334;2022-07-03T00:01:43;18.80;63.20
10386;DHT22;34307;51.332;12.334;2022-07-03T00:04:12;18.70;64.00
10386;DHT22;34307;51.332;12.334;2022-07-03T00:06:41;18.70;64.70
10386;DHT22;34307;51.332;12.334;2022-07-03T00:09:12;18.60;65.00
10386;DHT22;34307;51.332;12.334;2022-07-03T00:11:41;18.60;65.60
10386;DHT22;34307;51.332;12.334;2022-07-03T00:14:10;18.50;66.30
10386;DHT22;34307;51.332;12.334;2022-07-03T00:16:41;18.50;66.70
10386;DHT22;34307;51.332;12.334;2022-07-03T00:19:09;18.40;68.30
10386;DHT22;34307;51.332;12.334;2022-07-03T00:21:44;18.50;67.60
10386;DHT22;34307;51.332;12.334;2022-07-03T00:24:20;18.50;68.40
10386;DHT22;34307;51.332;12.334;2022-07-03T00:26:52;18.40;68.60
10386;DHT22;34307;51.332;12.334;2022-07-03T00:29:22;18.30;69.60
10386;DHT22;34307;51.332;12.334;2022-07-03T00:31:51;18.30;70.00
10386;DHT22;34307;51.332;12.334;2022-07-03T00:34:23;18.20;70.40
10386;DHT22;34307;51.332;12.334;2022-07-03T00:36:57;18.20;71.20
10386;DHT22;34307;51.332;12.334;2022-07-03T00:39:36;18.20;71.40
10386;DHT22;34307;51.332;12.334;2022-07-03T00:42:06;18.20;71.30
10386;DHT22;34307;51.332;12.334;2022-07-03T00:44:34;18.20;72.00
10386;DHT22;34307;51.332;12.334;2022-07-03T00:47:04;18.10;73.70
10386;DHT22;34307;51.332;12.334;2022-07-03T00:49:33;18.20;73.40
10386;DHT22;34307;51.332;12.334;2022-07-03T00:52:05;18.10;73.90
10386;DHT22;34307;51.332;12.334;2022-07-03T00:54:35;18.00;74.90
10386;DHT22;34307;51.332;12.334;2022-07-03T00:57:03;18.00;75.60
10386;DHT22;34307;51.332;12.334;2022-07-03T00:59:32;17.90;76.50
10386;DHT22;34307;51.332;12.334;2022-07-03T01:02:04;17.90;77.50
10386;DHT22;34307;51.332;12.334;2022-07-03T01:04:40;17.90;77.90
10386;DHT22;34307;51.332;12.334;2022-07-03T01:07:23;17.80;78.60
10386;DHT22;34307;51.332;12.334;2022-07-03T01:10:04;17.70;79.70
10386;DHT22;34307;51.332;12.334;2022-07-03T01:12:42;17.60;81.20
10386;DHT22;34307;51.332;12.334;2022-07-03T01:15:19;17.60;83.00
10386;DHT22;34307;51.332;12.334;2022-07-03T01:17:56;17.60;84.00
10386;DHT22;34307;51.332;12.334;2022-07-03T01:20:28;17.50;84.90
10386;DHT22;34307;51.332;12.334;2022-07-03T01:23:00;17.40;85.90
10386;DHT22;34307;51.332;12.334;2022-07-03T01:25:39;17.50;86.80
10386;DHT22;34307;51.332;12.334;2022-07-03T01:28:12;17.40;87.00
10386;DHT22;34307;51.332;12.334;2022-07-03T01:30:42;17.40;87.50
10386;DHT22;34307;51.332;12.334;2022-07-03T01:33:15;17.30;90.00
10386;DHT22;34307;51.332;12.334;2022-07-03T01:35:52;17.30;89.60
10386;DHT22;34307;51.332;12.334;2022-07-03T01:38:22;17.20;90.50
10386;DHT22;34307;51.332;12.334;2022-07-03T01:40:54;17.10;91.10
10386;DHT22;34307;51.332;12.334;2022-07-03T01:43:26;17.10;92.40
10386;DHT22;34307;51.332;12.334;2022-07-03T01:45:57;17.00;92.60
10386;DHT22;34307;51.332;12.334;2022-07-03T01:48:26;16.90;93.80
10386;DHT22;34307;51.332;12.334;2022-07-03T01:50:55;16.80;94.30
10386;DHT22;34307;51.332;12.334;2022-07-03T01:53:26;16.80;95.50
10386;DHT22;34307;51.332;12.334;2022-07-03T01:55:57;16.80;96.40
10386;DHT22;34307;51.332;12.334;2022-07-03T01:58:27;16.70;97.00
10386;DHT22;34307;51.332;12.334;2022-07-03T02:01:00;16.60;97.60
10386;DHT22;34307;51.332;12.334;2022-07-03T02:03:33;16.60;98.80
10386;DHT22;34307;51.332;12.334;2022-07-03T02:06:07;16.60;99.50
10386;DHT22;34307;51.332;12.334;2022-07-03T02:08:41;16.60;99.90
10386;DHT22;34307;51.332;12.334;2022-07-03T02:11:33;16.60;99.90
10386;DHT22;34307;51.332;12.334;2022-07-03T02:14:12;16.50;99.90
10386;DHT22;34307;51.332;12.334;2022-07-03T02:16:54;16.40;99.90
10386;DHT22;34307;51.332;12.334;2022-07-03T02:19:33;16.40;99.90
10386;DHT22;34307;51.332;12.334;2022-07-03T02:22:07;16.40;99.90
10386;DHT22;34307;51.332;12.334;2022-07-03T02:24:42;16.40;99.90
10386;DHT22;34307;51.332;12.334;2022-07-03T02:27:16;16.40;99.90
10386;DHT22;34307;51.332;12.334;2022-07-03T02:29:49;16.40;99.90
10386;DHT22;34307;51.332;12.334;2022-07-03T02:32:20;16.30;99.90
10386;DHT22;34307;51.332;12.334;2022-07-03T02:35:00;16.30;99.90
10386;DHT22;34307;51.332;12.334;2022-07-03T02:37:32;16.30;99.90
10386;DHT22;34307;51.332;12.334;2022-07-03T02:40:06;16.20;99.90
10386;DHT22;34307;51.332;12.334;2022-07-03T02:42:42;16.20;99.90
10386;DHT22;34307;51.332;12.334;2022-07-03T02:45:12;16.10;99.90
10386;DHT22;34307;51.332;12.334;2022-07-03T02:47:48;16.20;99.90
10386;DHT22;34307;51.332;12.334;2022-07-03T02:50:22;16.20;99.90
10386;DHT22;34307;51.332;12.334;2022-07-03T02:52:58;16.20;99.90
10386;DHT22;34307;51.332;12.334;2022-07-03T02:55:42;16.30;99.90
10386;DHT22;34307;51.332;12.334;2022-07-03T02:58:31;16.30;99.90
10386;DHT22;34307;51.332;12.334;2022-07-03T03:01:07;16.30;99.90
10386;DHT22;34307;51.332;12.334;2022-07-03T03:03:37;16.20;99.90
10386;DHT22;34307;51.332;12.334;2022-07-03T03:06:12;16.20;99.90
10386;DHT22;34307;51.332;12.334;2022-07-03T03:08:46;16.20;99.90
10386;DHT22;34307;51.332;12.334;2022-07-03T03:11:23;16.20;99.90
10386;DHT22;34307;51.332;12.334;2022-07-03T03:13:55;16.10;99.90
10386;DHT22;34307;51.332;12.334;2022-07-03T03:16:25;16.10;99.90
10386;DHT22;34307;51.332;12.334;2022-07-03T03:18:55;16.00;99.90
10386;DHT22;34307;51.332;12.334;2022-07-03T03:21:26;16.10;99.90
10386;DHT22;34307;51.332;12.334;2022-07-03T03:23:57;16.10;99.90
10386;DHT22;34307;51.332;12.334;2022-07-03T03:26:26;16.20;99.90
10386;DHT22;34307;51.332;12.334;2022-07-03T03:28:59;16.20;99.90
10386;DHT22;34307;51.332;12.334;2022-07-03T03:31:27;16.20;99.90
10386;DHT22;34307;51.332;12.334;2022-07-03T03:33:58;16.20;99.90
10386;DHT22;34307;51.332;12.334;2022-07-03T03:36:29;16.20;99.90
10386;DHT22;34307;51.332;12.334;2022-07-03T03:38:58;16.10;99.90
10386;DHT22;34307;51.332;12.334;2022-07-03T03:41:26;16.10;99.90
10386;DHT22;34307;51.332;12.334;2022-07-03T03:43:54;16.10;99.90
10386;DHT22;34307;51.332;12.334;2022-07-03T03:46:24;16.10;99.90
10386;DHT22;34307;51.332;12.334;2022-07-03T03:48:52;16.20;99.90
10386;DHT22;34307;51.332;12.334;2022-07-03T03:51:21;16.20;99.90
10386;DHT22;34307;51.332;12.334;2022-07-03T03:53:49;16.20;99.90
10386;DHT22;34307;51.332;12.334;2022-07-03T03:56:18;16.20;99.90
10386;DHT22;34307;51.332;12.334;2022-07-03T03:58:46;16.20;99.90
10386;DHT22;34307;51.332;12.334;2022-07-03T04:01:14;16.20;99.90
10386;DHT22;34307;51.332;12.334;2022-07-03T04:03:44;16.30;99.90
10386;DHT22;34307;51.332;12.334;2022-07-03T04:06:12;16.40;99.90
10386;DHT22;34307;51.332;12.334;2022-07-03T04:08:40;16.30;99.90
10386;DHT22;34307;51.332;12.334;2022-07-03T04:11:08;16.30;99.90
10386;DHT22;34307;51.332;12.334;2022-07-03T04:13:37;16.30;99.90
10386;DHT22;34307;51.332;12.334;2022-07-03T04:16:05;16.30;99.90
10386;DHT22;34307;51.332;12.334;2022-07-03T04:18:33;16.40;99.90
10386;DHT22;34307;51.332;12.334;2022-07-03T04:21:03;16.50;99.90
10386;DHT22;34307;51.332;12.334;2022-07-03T04:23:31;16.60;99.90
10386;DHT22;34307;51.332;12.334;2022-07-03T04:26:03;16.60;99.90
10386;DHT22;34307;51.332;12.334;2022-07-03T04:28:32;16.60;99.90
10386;DHT22;34307;51.332;12.334;2022-07-03T04:31:01;16.60;99.90
10386;DHT22;34307;51.332;12.334;2022-07-03T04:33:29;16.60;99.90
10386;DHT22;34307;51.332;12.334;2022-07-03T04:35:57;16.70;99.90
10386;DHT22;34307;51.332;12.334;2022-07-03T04:38:27;16.70;99.90
10386;DHT22;34307;51.332;12.334;2022-07-03T04:40:55;16.80;99.90
10386;DHT22;34307;51.332;12.334;2022-07-03T04:43:23;16.80;99.90
10386;DHT22;34307;51.332;12.334;2022-07-03T04:45:51;16.90;99.90
10386;DHT22;34307;51.332;12.334;2022-07-03T04:48:20;16.90;99.90
10386;DHT22;34307;51.332;12.334;2022-07-03T04:50:48;16.90;99.90
10386;DHT22;34307;51.332;12.334;2022-07-03T04:53:16;17.00;99.90
10386;DHT22;34307;51.332;12.334;2022-07-03T04:55:46;17.10;99.90
10386;DHT22;34307;51.332;12.334;2022-07-03T04:58:14;17.20;99.90
10386;DHT22;34307;51.332;12.334;2022-07-03T05:00:43;17.20;99.90
10386;DHT22;34307;51.332;12.334;2022-07-03T05:03:11;17.30;99.90
10386;DHT22;34307;51.332;12.334;2022-07-03T05:05:40;17.30;99.90
10386;DHT22;34307;51.332;12.334;2022-07-03T05:08:08;17.40;99.90
10386;DHT22;34307;51.332;12.334;2022-07-03T05:10:36;17.50;99.90
10386;DHT22;34307;51.332;12.334;2022-07-03T05:13:05;17.60;99.90
10386;DHT22;34307;51.332;12.334;2022-07-03T05:15:34;17.60;99.90
10386;DHT22;34307;51.332;12.334;2022-07-03T05:18:03;17.70;99.90
10386;DHT22;34307;51.332;12.334;2022-07-03T05:20:31;17.70;99.90
10386;DHT22;34307;51.332;12.334;2022-07-03T05:23:01;17.90;99.90
10386;DHT22;34307;51.332;12.334;2022-07-03T05:25:31;17.90;99.90
10386;DHT22;34307;51.332;12.334;2022-07-03T05:28:00;18.00;99.90
10386;DHT22;34307;51.332;12.334;2022-07-03T05:30:30;18.10;99.90
10386;DHT22;34307;51.332;12.334;2022-07-03T05:32:58;18.20;99.90
10386;DHT22;34307;51.332;12.334;2022-07-03T05:35:27;18.30;99.90
10386;DHT22;34307;51.332;12.334;2022-07-03T05:37:55;18.40;99.60
10386;DHT22;34307;51.332;12.334;2022-07-03T05:40:23;18.50;99.00
10386;DHT22;34307;51.332;12.334;2022-07-03T05:42:50;18.50;97.60
10386;DHT22;34307;51.332;12.334;2022-07-03T05:45:19;18.60;97.30
10386;DHT22;34307;51.332;12.334;2022-07-03T05:47:48;18.60;96.20
10386;DHT22;34307;51.332;12.334;2022-07-03T05:50:16;18.70;96.20
10386;DHT22;34307;51.332;12.334;2022-07-03T05:52:45;18.80;95.70
10386;DHT22;34307;51.332;12.334;2022-07-03T05:55:13;18.80;95.30
10386;DHT22;34307;51.332;12.334;2022-07-03T05:57:41;18.90;94.70
10386;DHT22;34307;51.332;12.334;2022-07-03T06:00:11;19.00;94.20
10386;DHT22;34307;51.332;12.334;2022-07-03T06:02:39;19.10;91.50
10386;DHT22;34307;51.332;12.334;2022-07-03T06:05:09;19.20;90.50
10386;DHT22;34307;51.332;12.334;2022-07-03T06:07:37;19.30;88.70
10386;DHT22;34307;51.332;12.334;2022-07-03T06:10:06;19.40;86.40
10386;DHT22;34307;51.332;12.334;2022-07-03T06:12:34;19.50;84.60
10386;DHT22;34307;51.332;12.334;2022-07-03T06:15:02;19.50;84.60
10386;DHT22;34307;51.332;12.334;2022-07-03T06:17:30;19.60;83.50
10386;DHT22;34307;51.332;12.334;2022-07-03T06:19:59;19.60;82.70
10386;DHT22;34307;51.332;12.334;2022-07-03T06:22:28;19.70;83.60
10386;DHT22;34307;51.332;12.334;2022-07-03T06:24:56;19.80;82.10
10386;DHT22;34307;51.332;12.334;2022-07-03T06:27:24;19.90;82.10
10386;DHT22;34307;51.332;12.334;2022-07-03T06:29:52;19.90;82.50
10386;DHT22;34307;51.332;12.334;2022-07-03T06:32:20;20.00;82.50
10386;DHT22;34307;51.332;12.334;2022-07-03T06:34:48;20.10;81.00
10386;DHT22;34307;51.332;12.334;2022-07-03T06:37:17;20.10;80.30
10386;DHT22;34307;51.332;12.334;2022-07-03T06:39:47;20.20;79.70
10386;DHT22;34307;51.332;12.334;2022-07-03T06:42:15;20.30;79.20
10386;DHT22;34307;51.332;12.334;2022-07-03T06:44:43;20.30;77.80
10386;DHT22;34307;51.332;12.334;2022-07-03T06:47:18;20.30;76.90
10386;DHT22;34307;51.332;12.334;2022-07-03T06:49:46;20.40;74.90
10386;DHT22;34307;51.332;12.334;2022-07-03T06:52:14;20.40;74.80
10386;DHT22;34307;51.332;12.334;2022-07-03T06:54:42;20.60;73.30
10386;DHT22;34307;51.332;12.334;2022-07-03T06:57:13;20.70;72.60
10386;DHT22;34307;51.332;12.334;2022-07-03T06:59:41;20.70;71.90
10386;DHT22;34307;51.332;12.334;2022-07-03T07:02:10;20.80;71.60
10386;DHT22;34307;51.332;12.334;2022-07-03T07:04:38;20.90;72.00
10386;DHT22;34307;51.332;12.334;2022-07-03T07:07:06;20.80;71.90
10386;DHT22;34307;51.332;12.334;2022-07-03T07:09:34;20.90;72.80
10386;DHT22;34307;51.332;12.334;2022-07-03T07:12:03;21.00;72.40
10386;DHT22;34307;51.332;12.334;2022-07-03T07:14:33;21.20;71.40
10386;DHT22;34307;51.332;12.334;2022-07-03T07:17:01;21.30;69.80
10386;DHT22;34307;51.332;12.334;2022-07-03T07:19:29;21.40;70.60
10386;DHT22;34307;51.332;12.334;2022-07-03T07:21:57;21.50;68.30
10386;DHT22;34307;51.332;12.334;2022-07-03T07:24:27;21.50;68.50
10386;DHT22;34307;51.332;12.334;2022-07-03T07:26:56;21.70;68.00
10386;DHT22;34307;51.332;12.334;2022-07-03T07:29:26;21.80;67.00
10386;DHT22;34307;51.332;12.334;2022-07-03T07:31:56;21.80;65.40
10386;DHT22;34307;51.332;12.334;2022-07-03T07:34:24;21.80;65.00
10386;DHT22;34307;51.332;12.334;2022-07-03T07:36:55;22.00;65.50
10386;DHT22;34307;51.332;12.334;2022-07-03T07:39:23;22.00;64.10
10386;DHT22;34307;51.332;12.334;2022-07-03T07:41:51;22.00;64.20
10386;DHT22;34307;51.332;12.334;2022-07-03T07:44:19;22.20;63.50
10386;DHT22;34307;51.332;12.334;2022-07-03T07:46:47;22.30;62.70
10386;DHT22;34307;51.332;12.334;2022-07-03T07:49:16;22.30;62.70
10386;DHT22;34307;51.332;12.334;2022-07-03T07:51:44;22.40;62.20
10386;DHT22;34307;51.332;12.334;2022-07-03T07:54:13;22.50;62.60
10386;DHT22;34307;51.332;12.334;2022-07-03T07:56:41;22.50;61.90
10386;DHT22;34307;51.332;12.334;2022-07-03T07:59:09;22.60;62.30
10386;DHT22;34307;51.332;12.334;2022-07-03T08:01:37;22.80;61.80
10386;DHT22;34307;51.332;12.334;2022-07-03T08:04:24;22.90;59.90
10386;DHT22;34307;51.332;12.334;2022-07-03T08:07:10;23.50;59.10
10386;DHT22;34307;51.332;12.334;2022-07-03T08:09:38;24.40;52.10
10386;DHT22;34307;51.332;12.334;2022-07-03T08:12:07;24.60;46.90
10386;DHT22;34307;51.332;12.334;2022-07-03T08:14:35;25.30;40.00
10386;DHT22;34307;51.332;12.334;2022-07-03T08:17:03;25.70;35.60
10386;DHT22;34307;51.332;12.334;2022-07-03T08:19:32;26.00;30.00
10386;DHT22;34307;51.332;12.334;2022-07-03T08:22:00;26.40;25.50
10386;DHT22;34307;51.332;12.334;2022-07-03T08:24:29;26.50;21.80
10386;DHT22;34307;51.332;12.334;2022-07-03T08:26:57;26.40;21.50
10386;DHT22;34307;51.332;12.334;2022-07-03T08:29:26;26.40;20.30
10386;DHT22;34307;51.332;12.334;2022-07-03T08:32:01;26.70;17.40
10386;DHT22;34307;51.332;12.334;2022-07-03T08:34:31;26.80;16.30
10386;DHT22;34307;51.332;12.334;2022-07-03T08:37:00;27.10;15.00
10386;DHT22;34307;51.332;12.334;2022-07-03T08:39:28;27.30;9.30
10386;DHT22;34307;51.332;12.334;2022-07-03T08:41:56;27.50;8.60
10386;DHT22;34307;51.332;12.334;2022-07-03T08:44:27;27.00;8.60
10386;DHT22;34307;51.332;12.334;2022-07-03T08:46:56;27.40;8.70
10386;DHT22;34307;51.332;12.334;2022-07-03T08:49:25;28.00;6.60
10386;DHT22;34307;51.332;12.334;2022-07-03T08:51:55;28.00;3.80
10386;DHT22;34307;51.332;12.334;2022-07-03T08:54:23;27.70;1.70
10386;DHT22;34307;51.332;12.334;2022-07-03T08:56:54;27.90;1.00
10386;DHT22;34307;51.332;12.334;2022-07-03T08:59:23;27.60;1.00
10386;DHT22;34307;51.332;12.334;2022-07-03T09:01:54;27.60;1.00
10386;DHT22;34307;51.332;12.334;2022-07-03T09:04:22;27.70;1.00
10386;DHT22;34307;51.332;12.334;2022-07-03T09:06:51;27.70;1.00
10386;DHT22;34307;51.332;12.334;2022-07-03T09:09:23;27.40;1.00
10386;DHT22;34307;51.332;12.334;2022-07-03T09:11:52;26.80;1.00
10386;DHT22;34307;51.332;12.334;2022-07-03T09:14:20;26.90;1.00
10386;DHT22;34307;51.332;12.334;2022-07-03T09:16:51;27.30;1.00
10386;DHT22;34307;51.332;12.334;2022-07-03T09:19:40;27.50;1.00
10386;DHT22;34307;51.332;12.334;2022-07-03T09:22:22;26.90;1.00
10386;DHT22;34307;51.332;12.334;2022-07-03T09:24:55;26.30;1.00
10386;DHT22;34307;51.332;12.334;2022-07-03T09:27:31;26.40;1.00
10386;DHT22;34307;51.332;12.334;2022-07-03T09:30:05;26.90;1.00
10386;DHT22;34307;51.332;12.334;2022-07-03T09:32:50;27.40;1.00
10386;DHT22;34307;51.332;12.334;2022-07-03T09:35:21;27.60;1.00
10386;DHT22;34307;51.332;12.334;2022-07-03T09:37:52;27.60;1.00
10386;DHT22;34307;51.332;12.334;2022-07-03T09:40:25;27.20;1.00
10386;DHT22;34307;51.332;12.334;2022-07-03T09:43:00;27.40;1.00
10386;DHT22;34307;51.332;12.334;2022-07-03T09:45:48;27.60;1.00
10386;DHT22;34307;51.332;12.334;2022-07-03T09:48:22;27.70;1.00
10386;DHT22;34307;51.332;12.334;2022-07-03T09:51:17;27.90;1.00
10386;DHT22;34307;51.332;12.334;2022-07-03T09:53:51;28.30;1.00
10386;DHT22;34307;51.332;12.334;2022-07-03T09:56:34;28.30;1.00
10386;DHT22;34307;51.332;12.334;2022-07-03T09:59:10;28.50;1.00
10386;DHT22;34307;51.332;12.334;2022-07-03T10:01:39;28.60;1.00
10386;DHT22;34307;51.332;12.334;2022-07-03T10:04:13;28.80;1.00
10386;DHT22;34307;51.332;12.334;2022-07-03T10:06:55;29.20;1.00
10386;DHT22;34307;51.332;12.334;2022-07-03T10:09:24;28.70;1.00
10386;DHT22;34307;51.332;12.334;2022-07-03T10:11:56;28.70;1.00
10386;DHT22;34307;51.332;12.334;2022-07-03T10:14:26;28.90;1.00
10386;DHT22;34307;51.332;12.334;2022-07-03T10:16:54;29.00;1.00
10386;DHT22;34307;51.332;12.334;2022-07-03T10:19:27;29.30;1.00
10386;DHT22;34307;51.332;12.334;2022-07-03T10:21:57;29.80;1.00
10386;DHT22;34307;51.332;12.334;2022-07-03T10:24:27;30.20;1.00
10386;DHT22;34307;51.332;12.334;2022-07-03T10:26:58;29.80;1.00
10386;DHT22;34307;51.332;12.334;2022-07-03T10:29:28;29.10;1.00
10386;DHT22;34307;51.332;12.334;2022-07-03T10:31:56;29.00;1.00
10386;DHT22;34307;51.332;12.334;2022-07-03T10:34:26;29.10;1.00
10386;DHT22;34307;51.332;12.334;2022-07-03T10:36:58;29.40;1.00
10386;DHT22;34307;51.332;12.334;2022-07-03T10:39:40;29.70;1.00
10386;DHT22;34307;51.332;12.334;2022-07-03T10:42:19;30.00;1.00
10386;DHT22;34307;51.332;12.334;2022-07-03T10:45:08;29.30;1.00
10386;DHT22;34307;51.332;12.334;2022-07-03T10:47:48;29.20;1.00
10386;DHT22;34307;51.332;12.334;2022-07-03T10:50:18;29.20;1.00
10386;DHT22;34307;51.332;12.334;2022-07-03T10:52:47;29.20;1.00
10386;DHT22;34307;51.332;12.334;2022-07-03T10:55:16;28.70;1.00
10386;DHT22;34307;51.332;12.334;2022-07-03T10:58:08;28.50;1.00
10386;DHT22;34307;51.332;12.334;2022-07-03T11:00:52;28.70;1.00
10386;DHT22;34307;51.332;12.334;2022-07-03T11:03:52;29.30;1.00
10386;DHT22;34307;51.332;12.334;2022-07-03T11:09:29;30.70;1.00
10386;DHT22;34307;51.332;12.334;2022-07-03T11:11:57;30.70;1.00
10386;DHT22;34307;51.332;12.334;2022-07-03T11:14:28;30.80;1.00
10386;DHT22;34307;51.332;12.334;2022-07-03T11:17:18;31.30;1.00
10386;DHT22;34307;51.332;12.334;2022-07-03T11:19:48;31.50;1.00
10386;DHT22;34307;51.332;12.334;2022-07-03T11:22:46;31.80;1.00
10386;DHT22;34307;51.332;12.334;2022-07-03T11:25:17;31.10;1.00
10386;DHT22;34307;51.332;12.334;2022-07-03T11:27:46;30.30;1.00
10386;DHT22;34307;51.332;12.334;2022-07-03T11:30:16;29.80;1.00
10386;DHT22;34307;51.332;12.334;2022-07-03T11:32:52;29.40;1.00
10386;DHT22;34307;51.332;12.334;2022-07-03T11:35:47;28.90;1.00
10386;DHT22;34307;51.332;12.334;2022-07-03T11:38:18;28.50;1.00
10386;DHT22;34307;51.332;12.334;2022-07-03T11:40:48;28.30;1.00
10386;DHT22;34307;51.332;12.334;2022-07-03T11:43:17;29.00;1.00
10386;DHT22;34307;51.332;12.334;2022-07-03T11:45:48;30.00;1.00
10386;DHT22;34307;51.332;12.334;2022-07-03T11:48:18;30.70;1.00
10386;DHT22;34307;51.332;12.334;2022-07-03T11:50:48;30.90;1.00
10386;DHT22;34307;51.332;12.334;2022-07-03T11:53:21;31.40;1.00
10386;DHT22;34307;51.332;12.334;2022-07-03T11:55:53;31.20;1.00
10386;DHT22;34307;51.332;12.334;2022-07-03T11:58:43;31.60;1.00
10386;DHT22;34307;51.332;12.334;2022-07-03T12:01:33;31.50;1.00
10386;DHT22;34307;51.332;12.334;2022-07-03T12:04:07;32.00;1.00
10386;DHT22;34307;51.332;12.334;2022-07-03T12:06:37;32.50;1.00
10386;DHT22;34307;51.332;12.334;2022-07-03T12:09:14;31.80;1.00
10386;DHT22;34307;51.332;12.334;2022-07-03T12:12:00;31.40;1.00
10386;DHT22;34307;51.332;12.334;2022-07-03T12:14:37;31.40;1.00
10386;DHT22;34307;51.332;12.334;2022-07-03T12:17:11;31.20;1.00
10386;DHT22;34307;51.332;12.334;2022-07-03T12:19:45;30.80;1.00
10386;DHT22;34307;51.332;12.334;2022-07-03T12:22:24;30.70;1.00
10386;DHT22;34307;51.332;12.334;2022-07-03T12:24:57;30.70;1.00
10386;DHT22;34307;51.332;12.334;2022-07-03T12:27:28;31.00;1.00
10386;DHT22;34307;51.332;12.334;2022-07-03T12:29:56;31.60;1.00
10386;DHT22;34307;51.332;12.334;2022-07-03T12:32:28;31.60;1.00
10386;DHT22;34307;51.332;12.334;2022-07-03T12:35:00;31.90;1.00
10386;DHT22;34307;51.332;12.334;2022-07-03T12:37:33;32.60;1.00
10386;DHT22;34307;51.332;12.334;2022-07-03T12:40:06;32.60;1.00
10386;DHT22;34307;51.332;12.334;2022-07-03T12:42:42;32.90;1.00
10386;DHT22;34307;51.332;12.334;2022-07-03T12:45:13;33.20;1.00
10386;DHT22;34307;51.332;12.334;2022-07-03T12:47:44;33.40;1.00
10386;DHT22;34307;51.332;12.334;2022-07-03T12:50:12;33.10;1.00
10386;DHT22;34307;51.332;12.334;2022-07-03T12:52:50;32.80;1.00
10386;DHT22;34307;51.332;12.334;2022-07-03T12:55:22;32.70;1.00
10386;DHT22;34307;51.332;12.334;2022-07-03T12:58:12;33.00;1.00
10386;DHT22;34307;51.332;12.334;2022-07-03T13:00:59;33.20;1.00
10386;DHT22;34307;51.332;12.334;2022-07-03T13:03:34;33.30;1.00
10386;DHT22;34307;51.332;12.334;2022-07-03T13:06:12;33.00;1.00
10386;DHT22;34307;51.332;12.334;2022-07-03T13:08:49;33.70;1.00
10386;DHT22;34307;51.332;12.334;2022-07-03T13:11:25;33.70;1.00
10386;DHT22;34307;51.332;12.334;2022-07-03T13:14:00;33.80;1.00
10386;DHT22;34307;51.332;12.334;2022-07-03T13:16:45;32.60;1.00
10386;DHT22;34307;51.332;12.334;2022-07-03T13:19:16;33.50;1.00
10386;DHT22;34307;51.332;12.334;2022-07-03T13:21:48;33.40;1.00
10386;DHT22;34307;51.332;12.334;2022-07-03T13:24:17;32.60;1.00
10386;DHT22;34307;51.332;12.334;2022-07-03T13:26:46;33.30;1.00
10386;DHT22;34307;51.332;12.334;2022-07-03T13:29:20;34.00;1.00
10386;DHT22;34307;51.332;12.334;2022-07-03T13:31:48;34.20;1.00
10386;DHT22;34307;51.332;12.334;2022-07-03T13:34:18;34.30;1.00
10386;DHT22;34307;51.332;12.334;2022-07-03T13:36:46;33.50;1.00
10386;DHT22;34307;51.332;12.334;2022-07-03T13:39:16;33.60;1.00
10386;DHT22;34307;51.332;12.334;2022-07-03T13:41:44;34.10;1.00
10386;DHT22;34307;51.332;12.334;2022-07-03T13:44:13;34.40;1.00
10386;DHT22;34307;51.332;12.334;2022-07-03T13:46:41;35.00;1.00
10386;DHT22;34307;51.332;12.334;2022-07-03T13:49:18;34.40;1.00
10386;DHT22;34307;51.332;12.334;2022-07-03T13:51:47;34.20;1.00
10386;DHT22;34307;51.332;12.334;2022-07-03T13:54:15;33.90;1.00
10386;DHT22;34307;51.332;12.334;2022-07-03T13:56:43;34.10;1.00
10386;DHT22;34307;51.332;12.334;2022-07-03T13:59:11;35.40;1.00
10386;DHT22;34307;51.332;12.334;2022-07-03T14:01:39;36.30;1.00
10386;DHT22;34307;51.332;12.334;2022-07-03T14:04:08;36.40;1.00
10386;DHT22;34307;51.332;12.334;2022-07-03T14:06:40;35.80;1.00
10386;DHT22;34307;51.332;12.334;2022-07-03T14:09:08;35.30;1.00
10386;DHT22;34307;51.332;12.334;2022-07-03T14:11:36;34.80;1.00
10386;DHT22;34307;51.332;12.334;2022-07-03T14:14:04;33.60;1.00
10386;DHT22;34307;51.332;12.334;2022-07-03T14:16:32;33.30;1.00
10386;DHT22;34307;51.332;12.334;2022-07-03T14:19:02;32.90;1.00
10386;DHT22;34307;51.332;12.334;2022-07-03T14:21:33;33.30;1.00
10386;DHT22;34307;51.332;12.334;2022-07-03T14:24:03;33.00;1.00
10386;DHT22;34307;51.332;12.334;2022-07-03T14:26:32;33.80;1.00
10386;DHT22;34307;51.332;12.334;2022-07-03T14:29:18;33.80;1.00
10386;DHT22;34307;51.332;12.334;2022-07-03T14:32:04;34.00;1.00
10386;DHT22;34307;51.332;12.334;2022-07-03T14:34:50;34.20;1.00
10386;DHT22;34307;51.332;12.334;2022-07-03T14:37:18;33.80;1.00
10386;DHT22;34307;51.332;12.334;2022-07-03T14:39:48;35.00;1.00
10386;DHT22;34307;51.332;12.334;2022-07-03T14:42:17;35.30;1.00
10386;DHT22;34307;51.332;12.334;2022-07-03T14:44:46;35.20;1.00
10386;DHT22;34307;51.332;12.334;2022-07-03T14:47:14;34.90;1.00
10386;DHT22;34307;51.332;12.334;2022-07-03T14:49:42;34.50;1.00
10386;DHT22;34307;51.332;12.334;2022-07-03T14:52:11;34.00;1.00
10386;DHT22;34307;51.332;12.334;2022-07-03T14:54:39;34.50;1.00
10386;DHT22;34307;51.332;12.334;2022-07-03T14:57:23;34.60;1.00
10386;DHT22;34307;51.332;12.334;2022-07-03T15:00:03;34.50;1.00
10386;DHT22;34307;51.332;12.334;2022-07-03T15:02:49;33.00;1.00
10386;DHT22;34307;51.332;12.334;2022-07-03T15:05:18;31.90;1.00
10386;DHT22;34307;51.332;12.334;2022-07-03T15:07:58;31.40;1.00
10386;DHT22;34307;51.332;12.334;2022-07-03T15:10:31;32.20;1.00
10386;DHT22;34307;51.332;12.334;2022-07-03T15:13:03;34.20;1.00
10386;DHT22;34307;51.332;12.334;2022-07-03T15:15:31;34.50;1.00
10386;DHT22;34307;51.332;12.334;2022-07-03T15:18:02;35.50;1.00
10386;DHT22;34307;51.332;12.334;2022-07-03T15:20:32;36.00;1.00
10386;DHT22;34307;51.332;12.334;2022-07-03T15:23:01;36.00;1.00
10386;DHT22;34307;51.332;12.334;2022-07-03T15:25:31;36.60;1.00
10386;DHT22;34307;51.332;12.334;2022-07-03T15:28:01;38.00;1.00
10386;DHT22;34307;51.332;12.334;2022-07-03T15:30:30;38.90;1.00
10386;DHT22;34307;51.332;12.334;2022-07-03T15:32:58;38.80;1.00
10386;DHT22;34307;51.332;12.334;2022-07-03T15:35:28;38.10;1.00
10386;DHT22;34307;51.332;12.334;2022-07-03T15:38:07;37.80;1.00
10386;DHT22;34307;51.332;12.334;2022-07-03T15:40:45;39.00;1.00
10386;DHT22;34307;51.332;12.334;2022-07-03T15:43:52;37.80;1.00
10386;DHT22;34307;51.332;12.334;2022-07-03T15:46:36;36.10;1.00
10386;DHT22;34307;51.332;12.334;2022-07-03T15:49:23;35.40;1.00
10386;DHT22;34307;51.332;12.334;2022-07-03T15:52:01;35.70;1.00
10386;DHT22;34307;51.332;12.334;2022-07-03T15:54:36;35.70;1.00
10386;DHT22;34307;51.332;12.334;2022-07-03T15:57:13;35.90;1.00